Thunderstorms From: 25-05-2018 05:05 Until: 26-05-2018 05:00 warning for: Thunderstorms Level: Yellow info button

Although rather usual in this region, locally or potentially dangerous phenomena are expected. (such as local winds, summer thunderstorms, rising streams or high waves) Be aware and pay attention to the latest weather updates, especially if you carry out activities exposed to weather or close to a stream or shoreline. 


Meteo18 Weather Cam more information Meteo18 Weather Cam


warning for Thunderstorms more information blitzortung!


Rain radar more information rain snow radar


Visit our other weather sites:

Template documentation
and downloads

And another site



Weather Underground History page Text

Daily Summary for June 14, 2017 Units:  English    Metric   Both
« Previous Day
Next Day »
Daily Weekly Monthly Yearly Custom
  High: Low: Average:
Temperature: TemperatureC °F 16.8 °F 22.3 °F
Dew Point: DewpointC °F 13.1 °F 16.8 °F
Humidity: Humidity % 58 % 71 %
Wind Speed: WindSpeedKMH mph 0.0 mph 3.4 mph
Wind Gust: WindSpeedGustKMH mph - -
Wind:- - East
Pressure: PressurehPa in 1014.4 in -
Precipitation: 0.3 in    
Historical Graphs
 
 
Tabular Data for June 14, 2017
Time Temperature Dew Point Pressure Wind Wind Speed Wind Gust Humidity Rainfall Rate (Hourly)
TemperatureC °F DewpointC °F PressurehPa in Calm     Humidity % HourlyPrecipMM in
00:02 18.4 °F 14.1 °F 1018.2 in NE 1.6 mph 19.3 mph 76 % 0.0 in
00:12 18.1 °F 14.2 °F 1017.8 in NE 6.4 mph 19.3 mph 78 % 0.3 in
00:17 17.9 °F 14.2 °F 1017.8 in ENE 9.7 mph 19.3 mph 79 % 0.3 in
00:22 17.8 °F 14.1 °F 1017.8 in NE 4.8 mph 14.5 mph 79 % 0.3 in
00:27 17.8 °F 14.1 °F 1018.2 in Calm   12.9 mph 79 % 0.3 in
00:32 17.9 °F 14.0 °F 1017.8 in NE 6.4 mph 12.9 mph 78 % 0.3 in
00:37 17.9 °F 14.0 °F 1017.8 in East 3.2 mph 12.9 mph 78 % 0.3 in
00:42 17.8 °F 14.1 °F 1017.5 in ENE 4.8 mph 12.9 mph 79 % 0.3 in
00:52 17.7 °F 14.2 °F 1017.2 in NE 3.2 mph 11.3 mph 80 % 0.3 in
00:57 17.6 °F 14.1 °F 1017.2 in NE 8.0 mph 11.3 mph 80 % 0.3 in
01:02 17.6 °F 13.9 °F 1017.2 in Calm   14.5 mph 79 % 0.3 in
01:07 17.7 °F 14.0 °F 1017.2 in NW 3.2 mph 14.5 mph 79 % 0.0 in
01:12 17.7 °F 13.8 °F 1017.5 in NNW 3.2 mph 12.9 mph 78 % 0.0 in
01:17 17.7 °F 13.6 °F 1017.5 in Calm   8.0 mph 77 % 0.0 in
01:22 17.7 °F 13.6 °F 1017.5 in NNW 3.2 mph 4.8 mph 77 % 0.0 in
01:27 17.6 °F 13.5 °F 1017.5 in NE 1.6 mph 4.8 mph 77 % 0.0 in
01:32 17.5 °F 13.4 °F 1017.2 in NE 4.8 mph 9.7 mph 77 % 0.0 in
01:37 17.3 °F 13.4 °F 1017.2 in ENE 4.8 mph 11.3 mph 78 % 0.0 in
01:42 17.3 °F 13.4 °F 1017.2 in NNE 6.4 mph 11.3 mph 78 % 0.0 in
01:52 17.5 °F 13.2 °F 1017.5 in NNW 9.7 mph 12.9 mph 76 % 0.0 in
01:57 17.6 °F 13.3 °F 1017.5 in North 6.4 mph 12.9 mph 76 % 0.0 in
02:02 17.7 °F 13.2 °F 1017.2 in NNE 6.4 mph 12.9 mph 75 % 0.0 in
02:07 17.7 °F 13.2 °F 1017.2 in NNE 3.2 mph 12.9 mph 75 % 0.0 in
02:12 17.7 °F 13.4 °F 1017.2 in North 4.8 mph 11.3 mph 76 % 0.0 in
02:17 17.6 °F 13.3 °F 1017.2 in NNE 11.3 mph 12.9 mph 76 % 0.0 in
02:22 17.7 °F 13.4 °F 1017.2 in Calm   12.9 mph 76 % 0.0 in
02:32 17.7 °F 13.2 °F 1017.2 in North 1.6 mph 12.9 mph 75 % 0.0 in
02:37 17.8 °F 13.1 °F 1016.8 in NNE 1.6 mph 8.0 mph 74 % 0.0 in
02:42 17.9 °F 13.2 °F 1016.8 in NE 3.2 mph 6.4 mph 74 % 0.0 in
02:47 18.1 °F 13.4 °F 1016.8 in Calm   8.0 mph 74 % 0.0 in
02:52 18.1 °F 13.4 °F 1016.8 in Calm   8.0 mph 74 % 0.0 in
02:57 18.1 °F 13.4 °F 1016.8 in East 1.6 mph 8.0 mph 74 % 0.0 in
03:02 18.1 °F 13.4 °F 1016.5 in NE 4.8 mph 4.8 mph 74 % 0.0 in
03:17 17.9 °F 13.4 °F 1016.5 in Calm   6.4 mph 75 % 0.0 in
03:22 17.7 °F 13.2 °F 1016.1 in Calm   6.4 mph 75 % 0.0 in
03:32 17.6 °F 13.1 °F 1016.1 in Calm   1.6 mph 75 % 0.0 in
03:37 17.4 °F 13.1 °F 1016.1 in NNE 3.2 mph 3.2 mph 76 % 0.0 in
03:42 17.5 °F 13.2 °F 1016.1 in Calm   6.4 mph 76 % 0.0 in
03:47 17.4 °F 13.1 °F 1016.1 in NNW 1.6 mph 6.4 mph 76 % 0.0 in
03:52 17.3 °F 13.2 °F 1016.1 in North 3.2 mph 6.4 mph 77 % 0.0 in
03:57 17.1 °F 13.2 °F 1016.1 in Calm   6.4 mph 78 % 0.0 in
04:02 16.9 °F 13.2 °F 1016.1 in NNW 1.6 mph 4.8 mph 79 % 0.0 in
04:07 16.9 °F 13.2 °F 1016.1 in Calm   4.8 mph 79 % 0.0 in
04:12 16.9 °F 13.2 °F 1016.1 in Calm   4.8 mph 79 % 0.0 in
04:17 16.9 °F 13.2 °F 1016.1 in NE 3.2 mph 4.8 mph 79 % 0.0 in
04:22 16.9 °F 13.2 °F 1016.1 in Calm   4.8 mph 79 % 0.0 in
04:32 17.1 °F 13.2 °F 1016.1 in NE 3.2 mph 4.8 mph 78 % 0.0 in
04:37 17.1 °F 13.2 °F 1016.1 in NE 3.2 mph 4.8 mph 78 % 0.0 in
04:42 17.2 °F 13.3 °F 1016.1 in Calm   6.4 mph 78 % 0.0 in
04:47 17.3 °F 13.4 °F 1016.1 in NE 3.2 mph 9.7 mph 78 % 0.0 in
04:52 17.3 °F 13.4 °F 1016.1 in NNE 1.6 mph 9.7 mph 78 % 0.0 in
04:57 17.3 °F 13.2 °F 1016.1 in North 4.8 mph 9.7 mph 77 % 0.0 in
05:02 17.4 °F 13.3 °F 1016.1 in Calm   9.7 mph 77 % 0.0 in
05:12 17.3 °F 13.2 °F 1016.1 in Calm   6.4 mph 77 % 0.0 in
05:17 17.3 °F 13.4 °F 1016.1 in NNE 1.6 mph 4.8 mph 78 % 0.0 in
05:22 17.3 °F 13.2 °F 1016.1 in Calm   3.2 mph 77 % 0.0 in
05:27 17.3 °F 13.4 °F 1016.1 in NNE 3.2 mph 3.2 mph 78 % 0.0 in
05:32 17.3 °F 13.4 °F 1016.1 in Calm   3.2 mph 78 % 0.0 in
05:37 17.3 °F 13.6 °F 1016.1 in Calm   6.4 mph 79 % 0.0 in
05:42 17.1 °F 13.6 °F 1016.1 in Calm   6.4 mph 80 % 0.0 in
05:47 17.1 °F 13.4 °F 1016.1 in NNE 1.6 mph 6.4 mph 79 % 0.0 in
05:52 17.0 °F 13.3 °F 1016.1 in NE 3.2 mph 3.2 mph 79 % 0.0 in
05:57 17.1 °F 13.4 °F 1016.1 in NNW 1.6 mph 3.2 mph 79 % 0.0 in
06:02 17.1 °F 13.4 °F 1016.5 in NE 1.6 mph 6.4 mph 79 % 0.0 in
06:12 17.2 °F 13.3 °F 1016.5 in NNE 4.8 mph 6.4 mph 78 % 0.0 in
06:22 17.1 °F 13.4 °F 1016.5 in ENE 1.6 mph 9.7 mph 79 % 0.0 in
06:27 16.9 °F 13.4 °F 1016.5 in NNE 4.8 mph 9.7 mph 80 % 0.0 in
06:32 16.8 °F 13.5 °F 1016.5 in ENE 1.6 mph 8.0 mph 81 % 0.0 in
06:37 16.9 °F 13.4 °F 1016.5 in ENE 3.2 mph 8.0 mph 80 % 0.0 in
06:42 16.9 °F 13.4 °F 1016.5 in ENE 1.6 mph 9.7 mph 80 % 0.0 in
06:52 17.0 °F 13.7 °F 1016.5 in NE 1.6 mph 9.7 mph 81 % 0.0 in
06:57 17.0 °F 13.7 °F 1016.1 in ENE 4.8 mph 9.7 mph 81 % 0.0 in
07:02 17.1 °F 13.8 °F 1016.1 in ENE 6.4 mph 6.4 mph 81 % 0.0 in
07:12 17.4 °F 13.9 °F 1016.1 in Calm   6.4 mph 80 % 0.0 in
07:17 17.6 °F 14.1 °F 1016.1 in Calm   6.4 mph 80 % 0.0 in
07:22 17.7 °F 14.2 °F 1016.1 in Calm   6.4 mph 80 % 0.0 in
07:27 17.8 °F 14.5 °F 1016.1 in Calm   4.8 mph 81 % 0.0 in
07:32 17.9 °F 14.6 °F 1016.5 in Calm   3.2 mph 81 % 0.0 in
07:42 18.2 °F 14.9 °F 1016.5 in Calm   1.6 mph 81 % 0.0 in
07:52 19.1 °F 15.2 °F 1016.1 in ENE 3.2 mph 3.2 mph 78 % 0.0 in
07:57 19.2 °F 15.1 °F 1016.1 in ENE 3.2 mph 3.2 mph 77 % 0.0 in
08:02 19.4 °F 14.9 °F 1016.1 in East 1.6 mph 4.8 mph 75 % 0.0 in
08:12 19.7 °F 15.3 °F 1016.1 in NE 4.8 mph 6.4 mph 76 % 0.0 in
08:17 19.6 °F 15.3 °F 1016.1 in NE 4.8 mph 8.0 mph 76 % 0.0 in
08:27 19.8 °F 15.2 °F 1016.1 in NNW 3.2 mph 8.0 mph 75 % 0.0 in
08:32 19.9 °F 15.1 °F 1016.1 in ENE 4.8 mph 8.0 mph 74 % 0.0 in
08:37 20.2 °F 15.4 °F 1016.1 in ENE 8.0 mph 9.7 mph 74 % 0.0 in
08:42 20.3 °F 15.3 °F 1016.5 in ENE 4.8 mph 9.7 mph 73 % 0.0 in
08:47 20.5 °F 15.5 °F 1016.1 in ENE 6.4 mph 11.3 mph 73 % 0.0 in
08:52 20.4 °F 15.4 °F 1016.1 in NNE 3.2 mph 11.3 mph 73 % 0.0 in
09:02 20.3 °F 15.5 °F 1016.1 in NE 3.2 mph 12.9 mph 74 % 0.0 in
09:07 20.3 °F 15.3 °F 1016.1 in ENE 4.8 mph 12.9 mph 73 % 0.0 in
09:12 20.4 °F 15.6 °F 1016.1 in ENE 8.0 mph 9.7 mph 74 % 0.0 in
09:17 20.6 °F 15.8 °F 1016.1 in ENE 8.0 mph 9.7 mph 74 % 0.0 in
09:22 20.8 °F 15.8 °F 1016.1 in NE 8.0 mph 9.7 mph 73 % 0.0 in
09:32 21.1 °F 16.1 °F 1016.5 in ENE 9.7 mph 12.9 mph 73 % 0.0 in
09:42 21.3 °F 16.3 °F 1016.1 in NE 6.4 mph 12.9 mph 73 % 0.0 in
09:47 21.7 °F 16.2 °F 1016.1 in ENE 14.5 mph 14.5 mph 71 % 0.0 in
09:52 22.0 °F 16.3 °F 1016.1 in ENE 12.9 mph 17.7 mph 70 % 0.0 in
09:57 22.2 °F 16.2 °F 1016.1 in ENE 4.8 mph 17.7 mph 69 % 0.0 in
10:02 22.3 °F 16.3 °F 1016.1 in ENE 8.0 mph 17.7 mph 69 % 0.0 in
10:07 22.6 °F 16.4 °F 1016.1 in ENE 8.0 mph 16.1 mph 68 % 0.0 in
10:12 22.9 °F 16.9 °F 1016.5 in NNE 4.8 mph 16.1 mph 69 % 0.0 in
10:22 23.1 °F 16.6 °F 1016.5 in East 6.4 mph 14.5 mph 67 % 0.0 in
10:27 23.2 °F 16.7 °F 1016.5 in ENE 3.2 mph 12.9 mph 67 % 0.0 in
10:32 23.3 °F 16.6 °F 1016.5 in East 4.8 mph 11.3 mph 66 % 0.0 in
10:37 23.5 °F 17.3 °F 1016.5 in ENE 4.8 mph 11.3 mph 68 % 0.0 in
10:42 23.8 °F 17.1 °F 1016.5 in East 8.0 mph 11.3 mph 66 % 0.0 in
10:47 23.9 °F 17.2 °F 1016.1 in East 8.0 mph 11.3 mph 66 % 0.0 in
10:52 23.9 °F 17.2 °F 1016.1 in East 6.4 mph 17.7 mph 66 % 0.0 in
10:57 24.0 °F 17.3 °F 1016.5 in ENE 11.3 mph 17.7 mph 66 % 0.0 in
11:02 24.1 °F 17.6 °F 1016.5 in East 9.7 mph 17.7 mph 67 % 0.0 in
11:12 24.4 °F 17.9 °F 1016.5 in NE 3.2 mph 19.3 mph 67 % 0.0 in
11:17 24.5 °F 17.7 °F 1016.5 in ENE 8.0 mph 19.3 mph 66 % 0.0 in
11:22 24.4 °F 17.9 °F 1016.5 in ENE 3.2 mph 14.5 mph 67 % 0.0 in
11:32 24.6 °F 18.1 °F 1016.1 in ENE 8.0 mph 12.9 mph 67 % 0.0 in
11:42 24.4 °F 17.9 °F 1016.5 in ENE 3.2 mph 11.3 mph 67 % 0.0 in
11:47 24.4 °F 18.3 °F 1016.5 in ENE 1.6 mph 12.9 mph 69 % 0.0 in
11:52 24.6 °F 18.5 °F 1016.5 in East 3.2 mph 12.9 mph 69 % 0.0 in
12:02 24.6 °F 18.3 °F 1016.5 in ENE 4.8 mph 9.7 mph 68 % 0.0 in
12:12 24.6 °F 18.8 °F 1016.5 in East 3.2 mph 9.7 mph 70 % 0.0 in
12:17 24.5 °F 18.2 °F 1016.5 in ENE 4.8 mph 9.7 mph 68 % 0.0 in
12:22 24.5 °F 18.2 °F 1016.5 in ENE 4.8 mph 9.7 mph 68 % 0.0 in
12:27 24.6 °F 18.5 °F 1016.5 in ENE 4.8 mph 9.7 mph 69 % 0.0 in
12:32 24.6 °F 18.3 °F 1016.5 in East 3.2 mph 9.7 mph 68 % 0.0 in
12:42 24.7 °F 18.4 °F 1016.5 in ENE 6.4 mph 6.4 mph 68 % 0.0 in
12:47 24.8 °F 18.5 °F 1016.1 in East 6.4 mph 8.0 mph 68 % 0.0 in
12:52 24.9 °F 18.3 °F 1016.1 in ENE 3.2 mph 8.0 mph 67 % 0.0 in
12:57 25.1 °F 18.5 °F 1016.1 in ENE 1.6 mph 8.0 mph 67 % 0.0 in
13:02 25.2 °F 18.4 °F 1016.1 in NE 6.4 mph 9.7 mph 66 % 0.0 in
13:07 25.2 °F 18.4 °F 1016.1 in ENE 6.4 mph 11.3 mph 66 % 0.0 in
13:12 25.3 °F 18.7 °F 1016.1 in NNW 4.8 mph 11.3 mph 67 % 0.0 in
13:17 25.5 °F 18.4 °F 1016.1 in NE 6.4 mph 11.3 mph 65 % 0.0 in
13:22 25.6 °F 18.5 °F 1016.1 in ENE 8.0 mph 12.9 mph 65 % 0.0 in
13:32 25.9 °F 18.6 °F 1016.1 in ENE 11.3 mph 12.9 mph 64 % 0.0 in
13:37 25.9 °F 18.6 °F 1016.1 in ENE 4.8 mph 17.7 mph 64 % 0.0 in
13:42 26.1 °F 18.8 °F 1016.1 in East 11.3 mph 17.7 mph 64 % 0.0 in
13:52 26.3 °F 18.9 °F 1015.8 in North 3.2 mph 14.5 mph 64 % 0.0 in
13:57 26.2 °F 18.8 °F 1015.8 in NE 4.8 mph 14.5 mph 64 % 0.0 in
14:02 26.2 °F 18.6 °F 1016.1 in North 3.2 mph 12.9 mph 63 % 0.0 in
14:07 26.3 °F 18.7 °F 1016.1 in ENE 6.4 mph 12.9 mph 63 % 0.0 in
14:12 26.2 °F 18.6 °F 1016.1 in NNE 4.8 mph 12.9 mph 63 % 0.0 in
14:22 26.3 °F 18.7 °F 1015.8 in ENE 8.0 mph 14.5 mph 63 % 0.0 in
14:27 26.3 °F 19.2 °F 1015.8 in NE 9.7 mph 14.5 mph 65 % 0.0 in
14:32 26.5 °F 19.1 °F 1015.8 in NE 4.8 mph 14.5 mph 64 % 0.0 in
14:37 26.7 °F 19.1 °F 1015.8 in NE 3.2 mph 14.5 mph 63 % 0.0 in
14:42 26.8 °F 19.2 °F 1015.8 in North 6.4 mph 14.5 mph 63 % 0.0 in
14:47 26.8 °F 19.2 °F 1015.8 in NNE 8.0 mph 16.1 mph 63 % 0.0 in
14:52 26.8 °F 19.2 °F 1015.8 in NNE 6.4 mph 16.1 mph 63 % 0.0 in
14:57 26.8 °F 19.2 °F 1015.8 in NE 4.8 mph 16.1 mph 63 % 0.0 in
15:02 26.9 °F 19.3 °F 1015.8 in ENE 6.4 mph 11.3 mph 63 % 0.0 in
15:07 26.9 °F 19.3 °F 1015.8 in East 3.2 mph 12.9 mph 63 % 0.0 in
15:12 26.9 °F 19.3 °F 1015.8 in ENE 6.4 mph 12.9 mph 63 % 0.0 in
15:17 26.9 °F 19.0 °F 1015.8 in ENE 3.2 mph 12.9 mph 62 % 0.0 in
15:22 26.9 °F 19.0 °F 1015.8 in ENE 4.8 mph 9.7 mph 62 % 0.0 in
15:27 26.9 °F 19.3 °F 1015.8 in ENE 6.4 mph 14.5 mph 63 % 0.0 in
15:32 26.9 °F 18.7 °F 1015.8 in East 3.2 mph 14.5 mph 61 % 0.0 in
15:37 27.0 °F 19.1 °F 1015.8 in ENE 1.6 mph 14.5 mph 62 % 0.0 in
15:42 27.1 °F 18.9 °F 1015.8 in NE 3.2 mph 9.7 mph 61 % 0.0 in
15:47 27.0 °F 18.6 °F 1015.8 in NNE 6.4 mph 8.0 mph 60 % 0.0 in
15:52 27.1 °F 18.7 °F 1015.8 in ENE 3.2 mph 9.7 mph 60 % 0.0 in
15:57 27.2 °F 19.0 °F 1015.8 in ENE 1.6 mph 9.7 mph 61 % 0.0 in
16:02 27.3 °F 18.9 °F 1015.8 in ENE 3.2 mph 8.0 mph 60 % 0.0 in
16:12 27.1 °F 18.9 °F 1015.8 in East 1.6 mph 8.0 mph 61 % 0.0 in
16:17 27.3 °F 19.6 °F 1015.8 in ENE 3.2 mph 8.0 mph 63 % 0.0 in
16:22 27.1 °F 18.7 °F 1015.8 in Calm   8.0 mph 60 % 0.0 in
16:32 27.3 °F 18.6 °F 1015.5 in Calm   8.0 mph 59 % 0.0 in
16:37 27.3 °F 18.9 °F 1015.5 in Calm   4.8 mph 60 % 0.0 in
16:42 27.4 °F 19.2 °F 1015.5 in NE 4.8 mph 4.8 mph 61 % 0.0 in
16:52 26.9 °F 19.5 °F 1015.5 in NNE 6.4 mph 11.3 mph 64 % 0.0 in
16:57 26.8 °F 19.7 °F 1015.5 in North 6.4 mph 11.3 mph 65 % 0.0 in
17:02 26.7 °F 19.8 °F 1015.5 in NNE 8.0 mph 11.3 mph 66 % 0.0 in
17:12 26.7 °F 19.6 °F 1015.1 in NE 8.0 mph 9.7 mph 65 % 0.0 in
17:17 26.7 °F 19.6 °F 1015.1 in NE 1.6 mph 11.3 mph 65 % 0.0 in
17:22 26.7 °F 19.3 °F 1015.1 in NE 1.6 mph 11.3 mph 64 % 0.0 in
17:32 26.7 °F 19.6 °F 1015.1 in NE 8.0 mph 11.3 mph 65 % 0.0 in
17:42 26.9 °F 19.5 °F 1015.1 in East 8.0 mph 9.7 mph 64 % 0.0 in
17:52 27.0 °F 19.1 °F 1015.1 in NE 1.6 mph 11.3 mph 62 % 0.0 in
17:57 27.1 °F 19.2 °F 1014.8 in NE 4.8 mph 11.3 mph 62 % 0.0 in
18:02 27.3 °F 19.4 °F 1014.8 in ENE 4.8 mph 11.3 mph 62 % 0.0 in
18:07 27.2 °F 19.3 °F 1014.8 in NE 3.2 mph 11.3 mph 62 % 0.0 in
18:12 27.2 °F 18.8 °F 1014.8 in Calm   11.3 mph 60 % 0.0 in
18:17 27.3 °F 18.9 °F 1014.4 in Calm   11.3 mph 60 % 0.0 in
18:22 27.9 °F 19.4 °F 1014.4 in SE 1.6 mph 11.3 mph 60 % 0.0 in
18:27 27.9 °F 18.9 °F 1014.4 in ENE 4.8 mph 6.4 mph 58 % 0.0 in
18:32 27.8 °F 19.1 °F 1014.4 in ESE 1.6 mph 8.0 mph 59 % 0.0 in
18:42 28.4 °F 19.3 °F 1014.8 in North 3.2 mph 8.0 mph 58 % 0.0 in
18:52 28.2 °F 19.4 °F 1014.8 in East 3.2 mph 9.7 mph 59 % 0.0 in
19:02 27.9 °F 19.4 °F 1014.8 in ENE 6.4 mph 12.9 mph 60 % 0.0 in
19:12 27.6 °F 19.7 °F 1015.1 in ENE 3.2 mph 11.3 mph 62 % 0.0 in
19:17 27.6 °F 19.9 °F 1015.1 in East 3.2 mph 9.7 mph 63 % 0.0 in
19:22 27.7 °F 20.0 °F 1015.1 in ENE 4.8 mph 9.7 mph 63 % 0.0 in
19:27 27.6 °F 19.7 °F 1015.1 in East 1.6 mph 9.7 mph 62 % 0.0 in
19:32 27.8 °F 19.8 °F 1015.5 in ENE 1.6 mph 9.7 mph 62 % 0.0 in
19:37 27.9 °F 19.7 °F 1015.5 in SE 1.6 mph 8.0 mph 61 % 0.0 in
19:47 28.4 °F 19.9 °F 1015.5 in Calm   3.2 mph 60 % 0.0 in
19:52 28.8 °F 20.3 °F 1015.5 in Calm   3.2 mph 60 % 0.0 in
19:57 28.7 °F 20.2 °F 1015.5 in Calm   1.6 mph 60 % 0.0 in
20:02 28.5 °F 20.0 °F 1015.5 in Calm   3.2 mph 60 % 0.0 in
20:07 28.7 °F 20.2 °F 1015.5 in Calm   3.2 mph 60 % 0.0 in
20:12 28.6 °F 20.1 °F 1015.5 in SSE 1.6 mph 4.8 mph 60 % 0.0 in
20:17 28.3 °F 20.1 °F 1015.5 in Calm   4.8 mph 61 % 0.0 in
20:22 28.2 °F 20.2 °F 1015.5 in SE 1.6 mph 4.8 mph 62 % 0.0 in
20:27 28.1 °F 20.4 °F 1015.5 in Calm   4.8 mph 63 % 0.0 in
20:37 27.4 °F 20.5 °F 1015.5 in Calm   4.8 mph 66 % 0.0 in
20:42 27.3 °F 20.6 °F 1015.5 in Calm   4.8 mph 67 % 0.0 in
20:52 27.2 °F 20.8 °F 1015.5 in Calm   1.6 mph 68 % 0.0 in
20:57 27.1 °F 20.9 °F 1015.5 in Calm   1.6 mph 69 % 0.0 in
21:02 26.7 °F 20.8 °F 1015.5 in Calm     70 % 0.0 in
21:07 26.3 °F 20.6 °F 1015.8 in ESE 4.8 mph 6.4 mph 71 % 0.0 in
21:12 25.5 °F 20.5 °F 1015.8 in ESE 3.2 mph 8.0 mph 74 % 0.0 in
21:17 25.0 °F 20.3 °F 1015.8 in Calm   8.0 mph 75 % 0.0 in
21:22 24.8 °F 20.3 °F 1015.8 in Calm   8.0 mph 76 % 0.0 in
21:32 24.3 °F 19.8 °F 1015.8 in SE 1.6 mph 6.4 mph 76 % 0.0 in
21:37 24.1 °F 19.8 °F 1015.8 in Calm   3.2 mph 77 % 0.0 in
21:42 23.7 °F 19.6 °F 1015.8 in Calm   3.2 mph 78 % 0.0 in
21:52 23.3 °F 19.5 °F 1016.1 in Calm   1.6 mph 79 % 0.0 in
21:57 23.1 °F 19.5 °F 1016.1 in Calm     80 % 0.0 in
22:02 22.8 °F 19.2 °F 1016.1 in Calm   1.6 mph 80 % 0.0 in
22:07 22.6 °F 19.2 °F 1016.1 in Calm   1.6 mph 81 % 0.0 in
22:12 22.4 °F 19.2 °F 1016.1 in Calm   1.6 mph 82 % 0.0 in
22:17 22.2 °F 19.0 °F 1016.5 in Calm     82 % 0.0 in
22:22 22.1 °F 19.1 °F 1016.5 in Calm     83 % 0.0 in
22:32 22.0 °F 19.2 °F 1016.5 in SW 3.2 mph 4.8 mph 84 % 0.0 in
22:37 21.9 °F 19.1 °F 1016.5 in SSW 1.6 mph 4.8 mph 84 % 0.0 in
22:42 21.9 °F 19.1 °F 1016.5 in SSW 1.6 mph 4.8 mph 84 % 0.0 in
22:52 21.6 °F 19.0 °F 1016.5 in Calm   3.2 mph 85 % 0.0 in
22:57 21.5 °F 18.9 °F 1016.5 in Calm   3.2 mph 85 % 0.0 in
23:02 21.4 °F 18.8 °F 1016.5 in Calm   1.6 mph 85 % 0.0 in
23:07 21.3 °F 18.7 °F 1016.5 in Calm   1.6 mph 85 % 0.0 in
23:12 21.1 °F 18.5 °F 1016.5 in Calm   1.6 mph 85 % 0.0 in
23:17 20.9 °F 18.5 °F 1016.5 in Calm   1.6 mph 86 % 0.0 in
23:22 20.8 °F 18.4 °F 1016.5 in Calm   1.6 mph 86 % 0.0 in
23:32 20.5 °F 18.3 °F 1016.5 in Calm   1.6 mph 87 % 0.0 in
23:37 20.3 °F 18.2 °F 1016.5 in Calm   1.6 mph 88 % 0.0 in
23:42 20.2 °F 18.3 °F 1016.5 in Calm   1.6 mph 89 % 0.0 in
23:47 20.2 °F 18.3 °F 1016.5 in Calm   1.6 mph 89 % 0.0 in
23:57 20.1 °F 18.2 °F 1016.5 in Calm     89 % 0.0 in
Meteo18
Compliments of Weather Underground - 4 mb

Script developed by  Jim McMurry - jmcmurry@mwt.net Adapted for the template by  Wim van der Kuil - Leuven-Template.eu

You find our weather info also at:

European Weather Network

Weather Underground

Equipment we use:

Weather-station
Davis Vue

Weather-program
Meteobridge

Weather-server
Raspberry PI 2 B+

Provider
1 and 1

Davis Vue

Meteobridge

Raspberry PI 2 B+

1 and 1